Inicio METAR Ruta Wind Satelite

Informe Meteorológico

Fecha: 2020/11/30 14:29:57 Local
2020.11.30 19:29 UTC


Estado: VENCIDO
Operación:
Station name not available
2020.08.14 1400 UTC
Wind: from the WNW (300 degrees) at 6 MPH (5 KT):0
Visibility: 4 mile(s):0
Sky conditions: mostly cloudy
Temperature: 77 F (25 C)
Dew Point: 73 F (23 C)
Relative Humidity: 88%
Pressure (altimeter): 29.86 in. Hg (1011 hPa)
ob: SKQU 141400Z 30005KT 8000 SCT020 BKN090 25/23 A2986 RMK HZ
cycle: 14